createdAt,value
2019-03-29T09:50:58.640Z,26.2310
2019-03-29T09:51:00.942Z,26.2470
2019-03-29T09:51:03.166Z,26.2043
2019-03-29T09:51:05.490Z,26.2470
2019-03-29T09:51:07.772Z,26.2738
2019-03-29T09:51:10.016Z,26.2604
2019-03-29T09:51:12.248Z,26.2604
2019-03-29T09:51:14.544Z,26.2871
2019-03-29T09:51:17.621Z,26.2871
2019-03-29T09:51:19.845Z,26.3298
2019-03-29T09:51:22.061Z,26.3298
2019-03-29T09:51:24.289Z,26.3458
2019-03-29T09:51:26.517Z,26.3592
2019-03-29T09:51:29.572Z,26.3458
2019-03-29T09:51:31.927Z,26.3726
2019-03-29T09:51:36.032Z,26.3458
2019-03-29T09:51:38.452Z,26.3592
2019-03-29T09:51:40.677Z,26.3726
2019-03-29T09:51:42.905Z,26.3726
2019-03-29T09:51:45.133Z,26.3458
2019-03-29T09:51:47.358Z,26.3726
2019-03-29T09:51:49.581Z,26.3592
2019-03-29T09:51:51.807Z,26.3458
2019-03-29T09:52:23.754Z,26.3859
2019-03-29T09:52:25.972Z,26.3298
2019-03-29T09:52:28.200Z,26.3031
2019-03-29T09:52:30.424Z,26.2871
2019-03-29T09:52:32.658Z,26.3298
2019-03-29T09:52:34.877Z,26.3726
2019-03-29T09:52:37.094Z,26.3458
2019-03-29T09:52:39.319Z,26.3165
2019-03-29T09:53:00.914Z,26.2470
2019-03-29T09:53:03.731Z,26.1749
2019-03-29T09:53:05.975Z,26.1189
2019-03-29T09:53:08.217Z,26.1322
2019-03-29T09:53:10.452Z,26.1189
2019-03-29T09:53:12.682Z,26.1616
2019-03-29T09:53:14.936Z,26.1482
2019-03-29T09:53:17.175Z,26.1322
2019-03-29T09:53:19.405Z,26.1616
2019-03-29T09:53:21.649Z,26.1616
2019-03-29T09:53:23.970Z,26.1910
2019-03-29T09:53:26.184Z,26.2043
2019-03-29T09:53:28.400Z,26.1749
2019-03-29T09:53:45.088Z,26.2310
2019-03-29T09:53:53.450Z,26.2310
2019-03-29T09:54:15.372Z,26.1482
2019-03-29T09:54:23.669Z,26.2738
2019-03-29T09:54:31.665Z,26.2310
2019-03-29T09:54:39.672Z,26.2871
2019-03-29T09:54:47.656Z,26.2738
2019-03-29T09:54:55.676Z,26.2738
2019-03-29T09:55:03.678Z,26.3458
2019-03-29T09:55:11.669Z,26.2871
2019-03-29T09:55:19.719Z,26.2871
2019-03-29T09:55:27.708Z,26.2738
2019-03-29T09:55:35.659Z,26.2871
2019-03-29T09:55:45.711Z,26.3031
2019-03-29T09:55:53.705Z,26.2310
2019-03-29T09:56:01.656Z,26.2177
2019-03-29T09:56:17.298Z,26.2871
2019-03-29T09:56:37.955Z,26.1749
2019-03-29T09:56:39.793Z,26.1910
2019-03-29T09:56:48.694Z,26.2310
2019-03-29T09:56:57.699Z,26.2177
2019-03-29T09:57:09.691Z,26.2310
2019-03-29T09:57:18.683Z,26.1482
2019-03-29T09:57:37.297Z,26.1322
2019-03-29T09:57:42.695Z,26.1749
2019-03-29T09:57:51.684Z,26.1749
2019-03-29T09:58:00.688Z,26.1910
2019-03-29T09:58:09.688Z,26.2043
2019-03-29T09:58:18.684Z,26.1910
2019-03-29T09:58:27.793Z,26.1189
2019-03-29T09:58:36.702Z,26.0922
2019-03-29T09:58:45.692Z,26.1055
2019-03-29T09:58:54.704Z,26.1189
2019-03-29T09:59:03.688Z,26.0922
2019-03-29T09:59:14.953Z,26.1189
2019-03-29T09:59:25.672Z,26.0761
2019-03-29T09:59:34.700Z,26.0174
2019-03-29T09:59:43.697Z,26.0334
2019-03-29T09:59:52.699Z,25.9907
2019-03-29T10:00:01.699Z,26.0040
2019-03-29T10:00:19.314Z,26.0174
2019-03-29T10:00:25.690Z,25.9747
2019-03-29T10:00:34.677Z,25.9346
2019-03-29T10:00:43.687Z,25.9186
2019-03-29T10:00:52.685Z,25.8785
2019-03-29T10:01:01.680Z,25.8785
2019-03-29T10:01:10.712Z,25.8785
2019-03-29T10:01:20.902Z,25.8919
2019-03-29T10:01:29.783Z,25.8625
2019-03-29T10:01:38.701Z,25.8785
2019-03-29T10:01:47.689Z,25.8919
2019-03-29T10:01:56.690Z,25.9186
2019-03-29T10:02:05.695Z,25.9052
2019-03-29T10:02:14.689Z,25.8625
2019-03-29T10:02:23.679Z,25.8625
2019-03-29T10:02:32.684Z,25.8198
2019-03-29T10:02:41.684Z,25.8492
2019-03-29T10:02:50.692Z,25.8492
2019-03-29T10:02:59.694Z,25.8625
2019-03-29T10:03:08.682Z,25.8492
2019-03-29T10:03:17.693Z,25.8492
2019-03-29T10:03:26.691Z,25.8198
2019-03-29T10:03:35.715Z,25.8198
2019-03-29T10:03:44.686Z,25.8198
2019-03-29T10:03:53.678Z,25.7637
2019-03-29T10:04:02.682Z,25.8198
2019-03-29T10:04:11.671Z,25.8198
2019-03-29T10:04:20.680Z,25.8785
2019-03-29T10:04:29.707Z,25.8919
2019-03-29T10:04:38.674Z,25.8625
2019-03-29T10:04:47.693Z,25.8492
2019-03-29T10:05:20.125Z,25.9186
2019-03-29T10:05:31.120Z,25.8492
2019-03-29T10:05:38.957Z,25.7931
2019-03-29T10:05:46.960Z,25.8785
2019-03-29T10:05:54.965Z,25.9186
2019-03-29T10:06:02.924Z,25.9480
2019-03-29T10:06:10.934Z,25.9613
2019-03-29T10:06:18.963Z,25.9186
2019-03-29T10:06:26.955Z,25.9186
2019-03-29T10:06:34.965Z,25.9480
2019-03-29T10:06:42.975Z,25.9613
2019-03-29T10:06:50.921Z,25.9613
2019-03-29T10:06:58.930Z,25.9613
2019-03-29T10:07:06.975Z,25.9186
2019-03-29T10:07:14.947Z,25.9346
2019-03-29T10:07:22.954Z,25.9186
2019-03-29T10:07:30.962Z,25.9186
2019-03-29T10:07:38.966Z,25.9052
2019-03-29T10:07:46.958Z,25.8785
2019-03-29T10:07:54.941Z,25.8919
2019-03-29T10:08:02.936Z,25.9052
2019-03-29T10:08:10.952Z,25.8785
2019-03-29T10:08:18.932Z,25.6809
2019-03-29T10:08:26.931Z,25.5074
2019-03-29T10:08:34.943Z,25.1282
2019-03-29T10:08:42.962Z,25.1575
2019-03-29T10:08:53.240Z,25.1842
2019-03-29T10:09:00.939Z,25.1842
2019-03-29T10:09:08.928Z,25.2270
2019-03-29T10:09:16.934Z,25.2270
2019-03-29T10:09:24.919Z,25.2403
2019-03-29T10:09:32.924Z,25.2564
2019-03-29T10:09:40.942Z,25.2403
2019-03-29T10:09:48.960Z,25.2136
2019-03-29T10:09:56.916Z,25.2564
2019-03-29T10:10:04.985Z,25.2697
2019-03-29T10:10:12.971Z,25.2831
2019-03-29T10:10:21.691Z,25.2564
2019-03-29T10:10:36.436Z,25.2270
2019-03-29T10:11:40.741Z,25.0561
2019-03-29T10:11:40.741Z,25.1842
2019-03-29T10:11:50.057Z,24.9706
2019-03-29T10:11:58.963Z,24.9146
2019-03-29T10:12:07.942Z,24.9573
2019-03-29T10:12:16.944Z,24.9413
2019-03-29T10:12:25.945Z,24.9279
2019-03-29T10:12:43.181Z,24.8852
2019-03-29T10:13:48.822Z,24.7864
2019-03-29T10:13:48.822Z,24.7864
2019-03-29T10:13:57.955Z,24.7864
2019-03-29T10:14:06.941Z,24.8024
2019-03-29T10:14:15.948Z,24.7864
2019-03-29T10:14:24.964Z,24.8024
2019-03-29T10:14:33.952Z,24.8451
2019-03-29T10:14:42.963Z,24.8718
2019-03-29T10:14:51.973Z,24.8852
2019-03-29T10:15:00.964Z,24.9146
2019-03-29T10:15:09.941Z,24.9706
2019-03-29T10:15:18.954Z,24.9573
2019-03-29T10:16:33.206Z,25.0000
2019-03-29T10:16:33.206Z,25.0401
2019-03-29T10:16:41.993Z,25.0267
2019-03-29T10:16:51.737Z,25.0401
2019-03-29T10:17:01.634Z,25.0561
2019-03-29T10:17:12.162Z,25.0854
2019-03-29T10:17:47.928Z,25.0401
2019-03-29T10:17:56.992Z,25.0561
2019-03-29T10:18:05.979Z,25.0854
2019-03-29T10:18:14.961Z,25.0721
2019-03-29T10:18:23.972Z,25.0561
2019-03-29T10:18:32.991Z,25.0401
2019-03-29T10:18:41.962Z,25.0561
2019-03-29T10:18:50.970Z,25.0401
2019-03-29T10:18:59.971Z,25.1148
2019-03-29T10:19:08.976Z,25.1976
2019-03-29T10:20:07.352Z,25.7076
2019-03-29T10:20:07.352Z,25.2831
2019-03-29T10:21:08.690Z,25.8785
2019-03-29T10:21:08.690Z,25.7931
2019-03-29T10:21:18.007Z,25.9186
2019-03-29T10:21:28.879Z,25.9052
2019-03-29T10:23:03.421Z,24.3057
2019-03-29T10:23:03.421Z,25.6809
2019-03-29T10:23:13.248Z,23.9105
2019-03-29T11:13:40.983Z,25.0561
2019-03-29T11:13:49.458Z,25.0854
2019-03-29T11:13:57.420Z,25.0267
2019-03-29T11:14:54.060Z,25.4513
2019-03-29T11:15:01.464Z,25.1148
2019-03-29T11:15:09.410Z,25.0561
2019-03-29T11:15:17.418Z,25.0401
2019-03-29T11:15:25.405Z,25.0561
2019-03-29T11:15:52.579Z,25.2403
2019-03-29T11:16:00.473Z,25.2964
2019-03-29T11:16:08.432Z,25.2270
2019-03-29T11:16:16.429Z,25.3391
2019-03-29T11:16:24.416Z,25.2270
2019-03-29T11:16:32.438Z,25.1415
2019-03-29T11:16:40.433Z,25.0561
2019-03-29T11:16:48.427Z,24.9413
2019-03-29T11:16:56.432Z,24.8718
2019-03-29T11:17:04.457Z,24.8291
2019-03-29T11:17:12.427Z,24.8157
2019-03-29T11:17:20.427Z,24.8157
2019-03-29T11:17:28.428Z,24.7303
2019-03-29T11:17:36.416Z,24.6742
2019-03-29T11:17:44.435Z,24.7303
2019-03-29T11:17:52.432Z,24.7597
2019-03-29T11:18:00.435Z,24.7597
2019-03-29T11:18:08.437Z,24.7463
2019-03-29T11:18:46.033Z,24.7036
2019-03-29T11:18:53.435Z,24.7730
2019-03-29T11:19:01.397Z,24.6902
2019-03-29T11:19:09.405Z,24.6048
2019-03-29T11:19:17.414Z,24.5460
2019-03-29T11:19:25.422Z,24.4739
2019-03-29T11:19:33.415Z,24.5754
2019-03-29T11:19:41.402Z,24.6048
2019-03-29T11:19:49.415Z,24.6315
2019-03-29T11:19:57.431Z,24.6609
2019-03-29T11:20:05.402Z,24.6475
2019-03-29T11:20:13.418Z,24.6475
2019-03-29T11:20:21.395Z,24.6315
2019-03-29T11:20:29.384Z,24.6475
2019-03-29T11:20:37.428Z,24.6742
2019-03-29T11:20:45.444Z,24.7036
2019-03-29T11:20:53.424Z,24.6475
2019-03-29T11:21:01.446Z,24.5754
2019-03-29T11:21:09.411Z,24.7169
2019-03-29T11:21:17.395Z,24.8024
2019-03-29T11:21:25.404Z,24.8157
2019-03-29T11:21:33.420Z,24.8157
2019-03-29T11:21:42.455Z,24.6181
2019-03-29T11:21:59.355Z,24.4339
2019-03-29T11:22:08.524Z,24.0948
2019-03-29T11:22:17.518Z,23.0320
2019-03-29T11:22:28.552Z,22.4792
2019-03-29T11:22:37.465Z,22.6074
2019-03-29T11:22:47.678Z,22.7916
2019-03-29T11:22:57.319Z,23.7957
2019-03-29T11:23:06.746Z,23.6568
2019-03-29T11:23:15.745Z,22.4659
2019-03-29T11:23:26.260Z,20.8797
2019-03-29T11:23:36.431Z,21.5579
2019-03-29T11:23:46.662Z,21.5019
2019-03-29T11:23:57.321Z,20.2842
2019-03-29T11:24:10.813Z,20.5966
2019-03-29T11:24:22.198Z,20.7675
2019-03-29T11:24:37.195Z,20.7114
2019-03-29T11:25:03.305Z,21.7288
2019-03-29T11:25:28.848Z,22.8611
2019-03-29T11:25:38.822Z,23.0453
2019-03-29T11:25:49.457Z,22.9332
2019-03-29T11:25:59.329Z,22.9465
2019-03-29T11:26:18.817Z,23.0159
2019-03-29T11:26:38.375Z,22.9038
2019-03-29T11:27:10.830Z,22.6795
2019-03-29T11:27:23.306Z,21.1067
2019-03-29T11:27:34.315Z,20.4978
2019-03-29T11:27:46.449Z,20.2281
2019-03-29T11:27:58.090Z,20.0732
2019-03-29T11:28:18.651Z,19.6914
2019-03-29T11:28:28.650Z,19.9317
2019-03-29T11:28:39.313Z,20.0465
2019-03-29T11:28:50.916Z,19.8890
2019-03-29T11:29:02.103Z,20.0332
2019-03-29T11:29:19.356Z,19.8463
2019-03-29T11:35:36.890Z,23.6702
2019-03-29T11:35:47.150Z,26.2470
2019-03-29T11:35:56.296Z,27.1656
2019-03-29T11:36:05.895Z,27.5341
2019-03-29T11:36:14.253Z,27.5608
2019-03-29T11:36:23.282Z,27.2084
2019-03-29T11:36:32.890Z,25.7637
2019-03-29T11:36:42.065Z,24.6315
2019-03-29T11:36:52.787Z,23.8384
2019-03-29T11:37:02.962Z,23.1735
2019-03-29T11:37:12.008Z,22.9892
2019-03-29T11:37:22.421Z,22.7916
2019-03-29T11:37:31.281Z,22.5219
2019-03-29T11:37:40.339Z,22.1401
2019-03-29T11:37:49.986Z,21.9558
2019-03-29T11:38:03.385Z,22.0119
2019-03-29T11:38:13.398Z,21.9825
2019-03-29T11:38:23.112Z,21.7449
2019-03-29T11:38:33.041Z,21.8009
2019-03-29T11:38:42.949Z,22.0840
2019-03-29T11:38:51.927Z,22.1828
2019-03-29T11:39:01.515Z,22.1401
2019-03-29T11:39:12.897Z,22.3110
2019-03-29T11:39:23.042Z,22.5486
2019-03-29T11:39:32.997Z,22.4926
2019-03-29T11:39:42.477Z,22.3804
2019-03-29T11:39:51.978Z,22.5059
2019-03-29T11:40:00.896Z,22.6074
2019-03-29T11:40:11.085Z,22.4659
2019-03-29T11:40:20.281Z,22.6074
2019-03-29T11:40:29.423Z,22.5059
2019-03-29T11:40:38.292Z,22.6635
2019-03-29T11:40:47.317Z,22.7489
2019-03-29T11:40:56.348Z,22.4792
2019-03-29T11:41:05.285Z,22.4098
2019-03-29T11:41:14.272Z,22.2683
2019-03-29T11:41:23.352Z,21.9265
2019-03-29T11:41:32.331Z,21.9825
2019-03-29T11:41:41.268Z,22.0546
2019-03-29T11:41:50.271Z,22.3110
2019-03-29T11:42:03.196Z,22.4365
2019-03-29T11:42:13.779Z,22.0253
2019-03-29T11:42:24.285Z,21.5446
2019-03-29T11:42:33.298Z,21.6594
2019-03-29T11:42:42.276Z,21.4031
2019-03-29T11:42:51.275Z,21.2615
2019-03-29T11:43:00.254Z,21.7288
2019-03-29T11:43:09.260Z,22.1134
2019-03-29T11:43:26.522Z,22.2122
2019-03-29T11:43:33.311Z,22.3671
2019-03-29T11:43:42.264Z,22.0546
2019-03-29T11:43:51.254Z,22.3110
2019-03-29T11:44:00.325Z,22.9465
2019-03-29T11:44:09.281Z,23.8384
2019-03-29T11:44:18.969Z,22.8344
2019-03-29T11:44:31.690Z,22.3804
2019-03-29T11:44:43.886Z,21.8143
2019-03-29T11:44:55.063Z,21.6300
2019-03-29T11:45:05.231Z,21.7155
2019-03-29T11:45:15.512Z,21.2215
2019-03-29T11:45:24.489Z,20.5112
2019-03-29T11:45:33.409Z,20.9358
2019-03-29T11:45:43.495Z,21.3897
2019-03-29T11:45:52.297Z,21.5713
2019-03-29T11:46:01.280Z,21.6300
2019-03-29T11:46:10.255Z,21.4725
2019-03-29T11:46:19.298Z,21.1360
2019-03-29T11:46:28.275Z,20.9651
2019-03-29T11:58:52.248Z,23.4405
2019-03-29T11:59:00.546Z,23.3845
2019-03-29T14:09:44.107Z,23.6408
